METAR Data
IDs: Format: Raw Decoded Include TAF

Data at: 2133 UTC 02 Aug 2021

RJOO 022100Z 33004KT 9999 VCSH FEW007 BKN015 FEW020CB BKN030 26/26 Q1007 RMK 1ST007 5CU015 1CB020 7CU030 A2974 CB S AND NW